Time;durP1;ratioP1;P1;durP2;ratioP2;P2;SDS_P1;SDS_P2;PMS_P1;PMS_P2;Temp;Humidity;BMP_temperature;BMP_pressure;BME280_temperature;BME280_humidity;BME280_pressure;Samples;Min_cycle;Max_cycle;Signal;HPM_P1;HPM_P2
2021/11/25 00:00:30;;;;;;;25.83;14.02;;;5.70;93.90;;;;;;2060027;28;20069;-91
2021/11/25 00:01:31;;;;;;;26.45;14.25;;;5.60;93.90;;;;;;2062002;28;20545;-91
2021/11/25 00:02:32;;;;;;;27.58;14.77;;;5.60;93.90;;;;;;2078216;28;20021;-91
2021/11/25 00:03:32;;;;;;;25.23;13.77;;;5.60;93.90;;;;;;2069576;28;20086;-91
2021/11/25 00:04:33;;;;;;;28.85;14.98;;;5.50;93.90;;;;;;2058883;28;20548;-91
2021/11/25 00:05:34;;;;;;;30.15;14.90;;;5.50;93.90;;;;;;2057954;28;20031;-90
2021/11/25 00:06:35;;;;;;;25.70;14.75;;;5.50;93.90;;;;;;2065797;28;20086;-91
2021/11/25 00:07:36;;;;;;;26.40;14.90;;;5.50;93.90;;;;;;2049787;28;20087;-90
2021/11/25 00:08:37;;;;;;;27.70;14.75;;;5.50;93.90;;;;;;2056698;28;20677;-91
2021/11/25 00:09:37;;;;;;;28.45;15.25;;;5.40;93.90;;;;;;2065350;28;20022;-90
2021/11/25 00:10:40;;;;;;;28.02;14.43;;;5.40;94.00;;;;;;2057257;28;20035;-91
2021/11/25 00:11:40;;;;;;;27.63;14.48;;;5.40;94.00;;;;;;2056270;28;20082;-91
2021/11/25 00:12:41;;;;;;;26.40;15.38;;;5.40;94.00;;;;;;2065444;28;20181;-91
2021/11/25 00:13:42;;;;;;;29.30;15.75;;;5.40;94.00;;;;;;2067303;28;20033;-91
2021/11/25 00:14:42;;;;;;;26.45;14.40;;;5.50;94.00;;;;;;2063996;28;20026;-90
2021/11/25 00:15:44;;;;;;;29.85;15.52;;;5.50;94.00;;;;;;2057181;28;20038;-91
2021/11/25 00:16:46;;;;;;;26.33;15.05;;;5.40;94.00;;;;;;2065544;28;20177;-91
2021/11/25 00:17:46;;;;;;;28.73;15.45;;;5.40;94.00;;;;;;2062174;28;20034;-91
2021/11/25 00:18:47;;;;;;;27.45;15.73;;;5.40;93.90;;;;;;2048163;28;20031;-91
2021/11/25 00:19:48;;;;;;;26.20;14.15;;;5.40;93.90;;;;;;2053461;28;20027;-91
2021/11/25 00:20:48;;;;;;;25.02;14.38;;;5.40;94.00;;;;;;2041112;29;20043;-91
2021/11/25 00:21:49;;;;;;;29.05;14.98;;;5.40;94.20;;;;;;2049138;28;20063;-91
2021/11/25 00:22:50;;;;;;;24.30;14.35;;;5.40;94.00;;;;;;2060355;28;20405;-92
2021/11/25 00:23:50;;;;;;;27.25;14.57;;;5.40;93.90;;;;;;2060028;28;20041;-91
2021/11/25 00:24:51;;;;;;;25.80;15.15;;;5.40;93.90;;;;;;2056588;28;20030;-91
2021/11/25 00:25:52;;;;;;;27.55;15.25;;;5.50;93.90;;;;;;2049658;28;20027;-91
2021/11/25 00:26:52;;;;;;;25.83;14.38;;;5.50;93.90;;;;;;2057009;28;20412;-91
2021/11/25 00:27:53;;;;;;;25.85;14.18;;;5.50;93.90;;;;;;2060563;28;20022;-90
2021/11/25 00:28:54;;;;;;;25.35;13.52;;;5.50;93.90;;;;;;2043794;28;20027;-91
2021/11/25 00:29:54;;;;;;;27.25;15.15;;;5.50;93.90;;;;;;2041261;29;20036;-91
2021/11/25 00:30:55;;;;;;;28.85;14.55;;;5.50;93.90;;;;;;2057122;28;20041;-91
2021/11/25 00:31:56;;;;;;;25.20;14.13;;;5.50;94.00;;;;;;2066278;28;20050;-91
2021/11/25 00:32:57;;;;;;;24.33;14.50;;;5.50;93.80;;;;;;2057477;28;20035;-91
2021/11/25 00:33:57;;;;;;;26.35;13.88;;;5.50;93.80;;;;;;2066015;28;20030;-91
2021/11/25 00:34:58;;;;;;;25.13;14.25;;;5.50;93.80;;;;;;2073086;28;20439;-91
2021/11/25 00:35:58;;;;;;;25.38;13.82;;;5.50;93.80;;;;;;2056916;28;20042;-91
2021/11/25 00:36:59;;;;;;;26.52;14.98;;;5.50;93.80;;;;;;2049287;28;20028;-91
2021/11/25 00:38:00;;;;;;;26.35;14.00;;;5.50;93.90;;;;;;2061632;28;20393;-91
2021/11/25 00:39:01;;;;;;;26.13;14.52;;;5.50;93.80;;;;;;2045085;29;20043;-91
2021/11/25 00:40:02;;;;;;;26.27;14.77;;;5.50;93.80;;;;;;2056071;28;20083;-91
2021/11/25 00:41:02;;;;;;;25.88;14.50;;;5.50;93.80;;;;;;2056830;28;20121;-91
2021/11/25 00:42:03;;;;;;;25.42;14.45;;;5.50;93.80;;;;;;2050154;28;20028;-91
2021/11/25 00:43:04;;;;;;;27.15;15.07;;;5.50;93.80;;;;;;2058883;28;20026;-91
2021/11/25 00:44:05;;;;;;;25.25;14.63;;;5.50;93.80;;;;;;2056532;28;20086;-91
2021/11/25 00:45:07;;;;;;;25.50;14.82;;;5.50;93.80;;;;;;2055188;28;20045;-91
2021/11/25 00:46:08;;;;;;;26.20;14.13;;;5.50;93.80;;;;;;2068913;28;20029;-84
2021/11/25 00:47:09;;;;;;;26.02;14.23;;;5.50;93.80;;;;;;2074978;28;20026;-82
2021/11/25 00:48:10;;;;;;;23.48;13.80;;;5.50;93.70;;;;;;2067411;28;20011;-88
2021/11/25 00:49:11;;;;;;;27.40;15.05;;;5.50;93.70;;;;;;2077101;28;20019;-89
2021/11/25 00:50:14;;;;;;;25.33;14.02;;;5.50;93.70;;;;;;2066713;28;20014;-83
2021/11/25 00:51:15;;;;;;;25.88;14.25;;;5.50;93.70;;;;;;2068223;28;20075;-82
2021/11/25 00:52:16;;;;;;;25.73;14.48;;;5.50;93.80;;;;;;2067119;28;20003;-89
2021/11/25 00:53:17;;;;;;;25.40;14.43;;;5.50;93.80;;;;;;2071561;28;20058;-92
2021/11/25 00:54:18;;;;;;;25.77;14.65;;;5.50;93.80;;;;;;2081359;28;20029;-91
2021/11/25 00:55:19;;;;;;;23.05;14.30;;;5.50;94.00;;;;;;2080632;28;20553;-91
2021/11/25 00:56:20;;;;;;;25.83;14.52;;;5.40;93.80;;;;;;2089516;28;20021;-91
2021/11/25 00:57:20;;;;;;;27.45;14.82;;;5.40;93.80;;;;;;2089065;28;20108;-91
2021/11/25 00:58:21;;;;;;;25.92;14.45;;;5.40;93.80;;;;;;2089822;28;20569;-91
2021/11/25 00:59:22;;;;;;;25.27;14.50;;;5.40;93.80;;;;;;2081262;28;20082;-91
2021/11/25 01:00:23;;;;;;;27.73;15.10;;;5.40;93.80;;;;;;2073270;28;20036;-91
2021/11/25 01:01:24;;;;;;;26.27;15.02;;;5.40;93.80;;;;;;2065219;28;20114;-91
2021/11/25 01:02:25;;;;;;;27.02;14.93;;;5.40;93.80;;;;;;2066172;28;20035;-92
2021/11/25 01:03:26;;;;;;;27.17;14.65;;;5.40;93.90;;;;;;2074156;28;20472;-92
2021/11/25 01:04:26;;;;;;;25.60;14.60;;;5.40;93.90;;;;;;2090813;28;20021;-92
2021/11/25 01:05:27;;;;;;;24.80;14.20;;;5.40;93.90;;;;;;2090886;28;20029;-91
2021/11/25 01:06:28;;;;;;;25.80;13.57;;;5.40;93.90;;;;;;2091437;28;20021;-91
2021/11/25 01:07:31;;;;;;;25.40;14.05;;;5.40;93.90;;;;;;2090351;28;20033;-91
2021/11/25 01:08:32;;;;;;;25.70;15.48;;;5.40;93.90;;;;;;2091355;28;20033;-91
2021/11/25 01:09:33;;;;;;;29.20;14.95;;;5.40;93.90;;;;;;2091221;28;20044;-92
2021/11/25 01:10:34;;;;;;;28.13;14.95;;;5.40;93.90;;;;;;2091782;28;20495;-91
2021/11/25 01:11:34;;;;;;;23.90;13.95;;;5.40;93.90;;;;;;2090892;28;20048;-91
2021/11/25 01:12:36;;;;;;;28.55;14.13;;;5.40;93.90;;;;;;2090712;28;20025;-92
2021/11/25 01:13:37;;;;;;;26.38;14.57;;;5.40;93.80;;;;;;2091026;28;20037;-92
2021/11/25 01:14:38;;;;;;;27.05;14.13;;;5.40;93.80;;;;;;2082477;28;20032;-91
2021/11/25 01:15:40;;;;;;;26.67;14.02;;;5.40;93.80;;;;;;2074860;28;20088;-91
2021/11/25 01:16:41;;;;;;;23.38;14.60;;;5.40;93.80;;;;;;2074551;28;20036;-92
2021/11/25 01:17:43;;;;;;;24.48;14.65;;;5.40;93.80;;;;;;2085057;28;20029;-91
2021/11/25 01:18:44;;;;;;;24.75;13.60;;;5.40;93.80;;;;;;2090165;28;20068;-91
2021/11/25 01:19:44;;;;;;;23.50;14.35;;;5.40;93.80;;;;;;2073407;28;20049;-91
2021/11/25 01:20:47;;;;;;;24.98;14.27;;;5.40;93.80;;;;;;2065839;28;20027;-91
2021/11/25 01:21:47;;;;;;;28.55;14.38;;;5.40;93.80;;;;;;2082570;28;20102;-91
2021/11/25 01:22:48;;;;;;;25.40;14.38;;;5.40;93.80;;;;;;2083475;28;20036;-91
2021/11/25 01:23:49;;;;;;;23.60;14.10;;;5.40;93.80;;;;;;2089765;28;20017;-92
2021/11/25 01:24:49;;;;;;;27.10;14.27;;;5.30;93.80;;;;;;2066023;28;20031;-91
2021/11/25 01:25:52;;;;;;;25.33;14.07;;;5.30;93.80;;;;;;2066460;28;20076;-91
2021/11/25 01:26:53;;;;;;;24.45;13.75;;;5.30;93.80;;;;;;2090984;28;20441;-91
2021/11/25 01:27:53;;;;;;;26.02;13.82;;;5.30;93.80;;;;;;2090909;28;20060;-91
2021/11/25 01:28:54;;;;;;;27.02;14.75;;;5.30;93.80;;;;;;2082443;28;20034;-91
2021/11/25 01:29:55;;;;;;;23.65;13.50;;;5.30;93.80;;;;;;2073856;28;20102;-91
2021/11/25 01:30:58;;;;;;;22.05;13.38;;;5.30;93.80;;;;;;2077783;28;20036;-92
2021/11/25 01:31:59;;;;;;;24.58;13.68;;;5.30;93.80;;;;;;2091176;28;20033;-92
2021/11/25 01:33:00;;;;;;;22.90;13.20;;;5.30;93.80;;;;;;2090987;28;20045;-92
2021/11/25 01:34:00;;;;;;;25.42;14.07;;;5.30;93.80;;;;;;2082878;28;20067;-91
2021/11/25 01:35:01;;;;;;;23.90;13.95;;;5.30;93.80;;;;;;2074217;28;20050;-91
2021/11/25 01:36:03;;;;;;;24.55;13.88;;;5.30;93.80;;;;;;2074755;28;20459;-91
2021/11/25 01:37:04;;;;;;;23.83;12.93;;;5.30;93.80;;;;;;2082864;28;20075;-91
2021/11/25 01:38:07;;;;;;;24.52;13.73;;;5.30;93.80;;;;;;2082736;28;20095;-92
2021/11/25 01:39:08;;;;;;;23.27;13.30;;;5.30;93.80;;;;;;2074752;28;20030;-91
2021/11/25 01:40:12;;;;;;;25.50;14.15;;;5.30;93.80;;;;;;2065871;28;20026;-91
2021/11/25 01:41:14;;;;;;;24.33;13.73;;;5.30;93.80;;;;;;2074945;28;20022;-92
2021/11/25 01:42:15;;;;;;;25.90;13.63;;;5.30;93.80;;;;;;2074793;28;20033;-91
2021/11/25 01:43:21;;;;;;;22.55;12.70;;;5.30;93.90;;;;;;2058521;28;20053;-91
2021/11/25 01:44:22;;;;;;;25.15;13.63;;;5.30;93.80;;;;;;2067732;28;20516;-91
2021/11/25 01:45:25;;;;;;;24.60;13.43;;;5.40;93.80;;;;;;2089804;28;20044;-91
2021/11/25 01:46:26;;;;;;;25.45;14.07;;;5.40;93.80;;;;;;2082405;28;20421;-91
2021/11/25 01:47:27;;;;;;;23.38;13.65;;;5.40;93.80;;;;;;2065404;28;20041;-92
2021/11/25 01:48:28;;;;;;;22.52;12.85;;;5.30;93.80;;;;;;2074444;28;20033;-92
2021/11/25 01:49:29;;;;;;;26.35;13.77;;;5.40;93.80;;;;;;2097308;28;20501;-92
2021/11/25 01:50:32;;;;;;;24.27;13.23;;;5.40;93.80;;;;;;2088587;28;20025;-91
2021/11/25 01:51:33;;;;;;;24.45;13.35;;;5.40;93.80;;;;;;2089548;28;20091;-91
2021/11/25 01:52:34;;;;;;;25.98;13.75;;;5.40;94.10;;;;;;2082655;28;20130;-91
2021/11/25 01:53:35;;;;;;;23.83;13.05;;;5.40;93.80;;;;;;2082124;28;20088;-92
2021/11/25 01:54:36;;;;;;;26.98;14.38;;;5.40;93.80;;;;;;2090867;28;20561;-91
2021/11/25 01:55:36;;;;;;;23.50;13.25;;;5.40;93.80;;;;;;2080751;28;20050;-92
2021/11/25 01:56:37;;;;;;;25.17;13.63;;;5.40;93.80;;;;;;2073499;28;20061;-90
2021/11/25 01:57:38;;;;;;;24.00;13.15;;;5.50;93.80;;;;;;2081144;28;20037;-90
2021/11/25 01:58:39;;;;;;;22.77;12.73;;;5.50;93.80;;;;;;2088860;28;20036;-90
2021/11/25 01:59:39;;;;;;;26.08;14.00;;;5.50;93.80;;;;;;2098110;28;20028;-90
2021/11/25 02:00:51;;;;;;;24.75;13.52;;;5.50;93.80;;;;;;2095481;28;20059;-91
2021/11/25 02:01:52;;;;;;;23.08;12.80;;;5.50;93.80;;;;;;2087071;28;20044;-91
2021/11/25 02:02:54;;;;;;;23.75;13.15;;;5.50;93.70;;;;;;2090043;28;20096;-91
2021/11/25 02:03:54;;;;;;;24.20;13.05;;;5.50;93.70;;;;;;2091014;28;20371;-92
2021/11/25 02:04:55;;;;;;;24.33;13.50;;;5.50;94.00;;;;;;2089958;28;20035;-91
2021/11/25 02:05:56;;;;;;;23.52;13.35;;;5.50;94.00;;;;;;2080606;28;20029;-91
2021/11/25 02:06:57;;;;;;;25.30;13.57;;;5.60;93.70;;;;;;2090979;28;20082;-91
2021/11/25 02:07:58;;;;;;;23.08;12.60;;;5.60;93.70;;;;;;2090893;28;20475;-92
2021/11/25 02:09:00;;;;;;;23.20;12.88;;;5.60;93.70;;;;;;2090775;28;20027;-91
2021/11/25 02:10:02;;;;;;;24.27;12.95;;;5.60;93.70;;;;;;2090802;28;20051;-91
2021/11/25 02:11:04;;;;;;;23.75;13.23;;;5.50;93.70;;;;;;2090721;28;20032;-91
2021/11/25 02:12:05;;;;;;;23.15;12.77;;;5.60;93.70;;;;;;2090746;28;20029;-92
2021/11/25 02:13:06;;;;;;;23.15;13.07;;;5.60;93.70;;;;;;2089552;28;20049;-92
2021/11/25 02:14:07;;;;;;;22.80;12.52;;;5.60;93.70;;;;;;2089887;28;20100;-91
2021/11/25 02:15:10;;;;;;;26.27;13.35;;;5.60;93.70;;;;;;2074224;28;20593;-92
2021/11/25 02:16:11;;;;;;;23.70;12.98;;;5.60;93.70;;;;;;2074712;28;20025;-91
2021/11/25 02:17:13;;;;;;;24.80;13.13;;;5.60;93.80;;;;;;2082224;28;20041;-91
2021/11/25 02:18:18;;;;;;;24.38;12.90;;;5.60;93.80;;;;;;2089856;28;20036;-91
2021/11/25 02:19:20;;;;;;;23.35;13.23;;;5.60;93.80;;;;;;2089735;28;20033;-92
2021/11/25 02:20:21;;;;;;;22.95;13.15;;;5.60;93.80;;;;;;2081804;28;20025;-91
2021/11/25 02:21:23;;;;;;;22.67;12.57;;;5.60;93.70;;;;;;2081450;28;20569;-91
2021/11/25 02:22:24;;;;;;;24.80;14.10;;;5.60;93.70;;;;;;2090536;28;20021;-90
2021/11/25 02:23:25;;;;;;;24.25;13.48;;;5.60;93.70;;;;;;2080502;28;20111;-91
2021/11/25 02:24:26;;;;;;;26.10;13.60;;;5.60;93.70;;;;;;2074381;28;20056;-90
2021/11/25 02:25:27;;;;;;;25.63;13.30;;;5.60;93.70;;;;;;2079922;28;20029;-91
2021/11/25 02:26:28;;;;;;;22.02;12.73;;;5.60;93.70;;;;;;2090614;28;20025;-91
2021/11/25 02:27:29;;;;;;;24.75;13.68;;;5.60;93.70;;;;;;2086411;28;20080;-91
2021/11/25 02:28:36;;;;;;;23.80;12.63;;;5.60;93.70;;;;;;2091380;28;20084;-91
2021/11/25 02:29:40;;;;;;;24.00;12.68;;;5.60;93.70;;;;;;2086758;28;20081;-91
2021/11/25 02:30:41;;;;;;;24.48;13.27;;;5.60;93.70;;;;;;2085123;28;20045;-91
2021/11/25 02:31:41;;;;;;;21.98;12.13;;;5.60;93.70;;;;;;2067507;28;20030;-91
2021/11/25 02:32:45;;;;;;;21.67;12.60;;;5.60;93.70;;;;;;2067879;28;20034;-84
2021/11/25 02:33:45;;;;;;;24.52;13.30;;;5.60;93.70;;;;;;2091414;28;20025;-90
2021/11/25 02:34:46;;;;;;;23.40;13.15;;;5.60;93.70;;;;;;2084399;28;20014;-83
2021/11/25 02:35:47;;;;;;;26.98;12.80;;;5.60;93.70;;;;;;2068244;28;20086;-88
2021/11/25 02:36:48;;;;;;;23.67;12.57;;;5.60;94.00;;;;;;2083493;28;20017;-90
2021/11/25 02:37:50;;;;;;;23.58;13.15;;;5.60;93.70;;;;;;2100854;28;20424;-86
2021/11/25 02:38:52;;;;;;;24.13;12.88;;;5.50;93.70;;;;;;2084791;28;20085;-88
2021/11/25 02:39:53;;;;;;;24.48;12.70;;;5.60;93.70;;;;;;2089473;28;20032;-91
2021/11/25 02:40:56;;;;;;;21.85;12.05;;;5.50;93.70;;;;;;2081907;28;20025;-91
2021/11/25 02:41:57;;;;;;;21.60;12.45;;;5.50;93.70;;;;;;2065806;28;20034;-90
2021/11/25 02:43:00;;;;;;;24.40;12.82;;;5.50;94.00;;;;;;2074035;28;20053;-90
2021/11/25 02:44:01;;;;;;;23.65;12.48;;;5.50;93.80;;;;;;2088170;28;20562;-90
2021/11/25 02:45:01;;;;;;;25.45;13.63;;;5.50;93.80;;;;;;2090258;28;20033;-90
2021/11/25 02:46:06;;;;;;;20.50;12.27;;;5.50;93.80;;;;;;2081995;28;20025;-90
2021/11/25 02:47:07;;;;;;;24.00;12.90;;;5.50;93.80;;;;;;2082769;28;20028;-90
2021/11/25 02:48:07;;;;;;;24.13;12.95;;;5.50;93.80;;;;;;2089923;28;20025;-90
2021/11/25 02:49:08;;;;;;;22.33;12.63;;;5.50;94.00;;;;;;2065734;28;20101;-90
2021/11/25 02:50:09;;;;;;;23.05;12.57;;;5.50;93.80;;;;;;2073679;28;20492;-90
2021/11/25 02:51:13;;;;;;;22.90;12.57;;;5.50;93.80;;;;;;2089774;28;20133;-90
2021/11/25 02:52:13;;;;;;;22.25;13.02;;;5.50;93.80;;;;;;2082495;28;20032;-90
2021/11/25 02:53:19;;;;;;;24.50;12.65;;;5.40;93.80;;;;;;2081619;28;20029;-92
2021/11/25 02:54:20;;;;;;;23.38;13.20;;;5.50;93.80;;;;;;2087391;28;20416;-90
2021/11/25 02:55:21;;;;;;;22.15;12.75;;;5.40;93.80;;;;;;2081650;28;20049;-89
2021/11/25 02:56:24;;;;;;;24.33;12.98;;;5.50;93.80;;;;;;2081856;28;20100;-89
2021/11/25 02:57:24;;;;;;;22.25;12.77;;;5.50;93.80;;;;;;2074068;28;20021;-90
2021/11/25 02:58:25;;;;;;;24.52;13.00;;;5.40;93.80;;;;;;2081196;28;20079;-91
2021/11/25 02:59:26;;;;;;;23.63;12.80;;;5.40;93.70;;;;;;2080876;28;20052;-91
2021/11/25 03:00:26;;;;;;;23.90;12.38;;;5.50;93.80;;;;;;2062655;28;20042;-90
2021/11/25 03:01:31;;;;;;;24.90;13.55;;;5.50;93.80;;;;;;2063537;28;20064;-90
2021/11/25 03:02:31;;;;;;;24.90;13.63;;;5.50;93.80;;;;;;2090239;28;20112;-92
2021/11/25 03:03:32;;;;;;;22.10;12.38;;;5.50;93.80;;;;;;2081923;28;20511;-91
2021/11/25 03:04:33;;;;;;;22.63;12.75;;;5.50;93.80;;;;;;2081853;28;20017;-91
2021/11/25 03:05:36;;;;;;;21.85;12.50;;;5.50;93.80;;;;;;2072512;28;20021;-92
2021/11/25 03:06:37;;;;;;;23.55;13.32;;;5.50;93.80;;;;;;2073990;28;20053;-91
2021/11/25 03:07:38;;;;;;;22.73;12.95;;;5.50;93.80;;;;;;2065546;28;20038;-92
2021/11/25 03:08:40;;;;;;;21.08;12.25;;;5.50;93.80;;;;;;2065863;28;20058;-91
2021/11/25 03:09:41;;;;;;;23.60;12.73;;;5.50;93.80;;;;;;2064903;28;20041;-91
2021/11/25 03:10:43;;;;;;;21.75;12.82;;;5.50;93.80;;;;;;2067694;28;20136;-91
2021/11/25 03:11:44;;;;;;;24.20;13.02;;;5.50;93.80;;;;;;2069247;28;20036;-91
2021/11/25 03:12:44;;;;;;;23.77;12.63;;;5.50;93.80;;;;;;2071700;28;20501;-92
2021/11/25 03:13:48;;;;;;;24.40;13.40;;;5.50;93.70;;;;;;2076008;28;20076;-92
2021/11/25 03:14:49;;;;;;;22.80;12.85;;;5.50;93.70;;;;;;2094808;28;20045;-91
2021/11/25 03:15:51;;;;;;;24.52;13.48;;;5.50;93.70;;;;;;2085394;28;20026;-92
2021/11/25 03:16:52;;;;;;;22.25;12.32;;;5.50;93.70;;;;;;2086220;28;20026;-92
2021/11/25 03:17:52;;;;;;;23.17;13.25;;;5.50;93.70;;;;;;2086010;28;20084;-91
2021/11/25 03:18:53;;;;;;;22.80;12.82;;;5.50;93.70;;;;;;2068806;28;20088;-91
2021/11/25 03:19:54;;;;;;;21.67;12.93;;;5.50;93.70;;;;;;2070255;28;20120;-91
2021/11/25 03:20:56;;;;;;;22.15;13.35;;;5.50;93.70;;;;;;2073484;28;20456;-90
2021/11/25 03:21:57;;;;;;;24.00;13.25;;;5.50;93.70;;;;;;2065416;28;20035;-90
2021/11/25 03:22:58;;;;;;;23.35;13.07;;;5.50;93.70;;;;;;2073839;28;20036;-91
2021/11/25 03:23:58;;;;;;;23.42;13.45;;;5.50;93.70;;;;;;2082124;28;20029;-91
2021/11/25 03:24:59;;;;;;;22.77;13.30;;;5.50;93.70;;;;;;2078153;28;20038;-91
2021/11/25 03:26:02;;;;;;;22.92;13.23;;;5.50;93.70;;;;;;2085300;28;20034;-92
2021/11/25 03:27:02;;;;;;;24.08;13.82;;;5.50;93.70;;;;;;2087937;28;20037;-91
2021/11/25 03:28:04;;;;;;;23.85;13.27;;;5.50;93.70;;;;;;2095031;28;20033;-91
2021/11/25 03:29:05;;;;;;;22.88;13.40;;;5.50;93.70;;;;;;2097467;28;20035;-92
2021/11/25 03:30:06;;;;;;;25.77;14.30;;;5.50;93.70;;;;;;2089623;28;20133;-91
2021/11/25 03:31:07;;;;;;;23.65;13.45;;;5.50;93.70;;;;;;2089943;28;20469;-91
2021/11/25 03:32:08;;;;;;;21.35;13.25;;;5.60;93.70;;;;;;2077891;28;20133;-89
2021/11/25 03:33:11;;;;;;;24.20;13.80;;;5.50;93.70;;;;;;2089507;28;20528;-89
2021/11/25 03:34:12;;;;;;;24.00;13.32;;;5.50;93.60;;;;;;2087294;28;20036;-91
2021/11/25 03:35:13;;;;;;;22.23;13.75;;;5.50;93.60;;;;;;2086952;28;20082;-91
2021/11/25 03:36:14;;;;;;;23.20;13.55;;;5.50;93.60;;;;;;2089316;28;20092;-90
2021/11/25 03:37:15;;;;;;;23.60;13.65;;;5.50;93.60;;;;;;2089901;28;20506;-90
2021/11/25 03:38:16;;;;;;;22.38;13.35;;;5.60;93.60;;;;;;2089904;28;20033;-91
2021/11/25 03:39:17;;;;;;;22.58;13.02;;;5.60;93.60;;;;;;2081694;28;20021;-90
2021/11/25 03:40:17;;;;;;;24.67;14.13;;;5.60;93.60;;;;;;2073300;28;20132;-91
2021/11/25 03:41:19;;;;;;;23.25;13.68;;;5.60;93.60;;;;;;2088960;28;20507;-91
2021/11/25 03:42:20;;;;;;;25.40;13.93;;;5.60;93.60;;;;;;2090133;28;20032;-91
2021/11/25 03:43:21;;;;;;;21.98;13.25;;;5.60;93.60;;;;;;2081348;28;20025;-91
2021/11/25 03:44:22;;;;;;;25.25;13.52;;;5.60;93.60;;;;;;2080942;28;20042;-90
2021/11/25 03:45:23;;;;;;;23.30;14.10;;;5.60;93.60;;;;;;2081523;28;20104;-90
2021/11/25 03:46:24;;;;;;;23.55;13.68;;;5.60;93.60;;;;;;2081657;28;20583;-91
2021/11/25 03:47:25;;;;;;;23.48;13.68;;;5.60;93.60;;;;;;2080933;28;20037;-90
2021/11/25 03:48:29;;;;;;;24.60;14.05;;;5.60;93.60;;;;;;2081002;28;20047;-91
2021/11/25 03:49:30;;;;;;;23.63;14.18;;;5.60;93.60;;;;;;2082148;28;20021;-91
2021/11/25 03:50:30;;;;;;;22.63;13.13;;;5.60;93.60;;;;;;2081828;28;20087;-91
2021/11/25 03:51:31;;;;;;;21.90;13.68;;;5.60;93.60;;;;;;2089896;28;20025;-88
2021/11/25 03:52:33;;;;;;;22.63;13.90;;;5.60;93.60;;;;;;2067678;28;20050;-91
2021/11/25 03:53:36;;;;;;;23.45;13.73;;;5.60;93.60;;;;;;2065160;28;20051;-90
2021/11/25 03:54:37;;;;;;;24.13;14.02;;;5.60;93.60;;;;;;2074156;28;20030;-91
2021/11/25 03:55:38;;;;;;;23.98;13.73;;;5.60;93.80;;;;;;2081686;28;20372;-91
2021/11/25 03:56:38;;;;;;;21.77;14.13;;;5.60;93.60;;;;;;2089119;28;20025;-91
2021/11/25 03:57:39;;;;;;;22.95;13.85;;;5.50;93.50;;;;;;2080034;28;20082;-90
2021/11/25 03:58:40;;;;;;;23.35;14.85;;;5.60;93.50;;;;;;2073392;28;20033;-90
2021/11/25 03:59:41;;;;;;;23.25;14.35;;;5.60;93.50;;;;;;2073336;28;20026;-91
2021/11/25 04:00:42;;;;;;;23.52;14.68;;;5.60;93.40;;;;;;2065926;28;20476;-90
2021/11/25 04:01:43;;;;;;;23.00;14.15;;;5.60;93.40;;;;;;2064893;28;20022;-91
2021/11/25 04:02:44;;;;;;;24.50;15.45;;;5.60;93.50;;;;;;2063463;28;20031;-91
2021/11/25 04:03:45;;;;;;;24.98;15.50;;;5.50;93.40;;;;;;2065392;28;20030;-90
2021/11/25 04:04:47;;;;;;;25.90;15.35;;;5.50;93.40;;;;;;2065012;28;20030;-91
2021/11/25 04:05:48;;;;;;;25.15;14.75;;;5.50;93.40;;;;;;2065357;28;20033;-91
2021/11/25 04:06:48;;;;;;;24.92;15.10;;;5.60;93.40;;;;;;2076646;28;20510;-91
2021/11/25 04:07:49;;;;;;;23.73;14.75;;;5.50;93.30;;;;;;2076009;28;20018;-91
2021/11/25 04:08:50;;;;;;;21.50;14.25;;;5.60;93.40;;;;;;2073446;28;20030;-91
2021/11/25 04:09:50;;;;;;;23.35;13.93;;;5.50;93.30;;;;;;2080955;28;20080;-91
2021/11/25 04:10:51;;;;;;;23.20;14.98;;;5.50;93.30;;;;;;2081439;28;20034;-91
2021/11/25 04:11:52;;;;;;;22.75;14.43;;;5.50;93.30;;;;;;2080645;28;20473;-92
2021/11/25 04:12:53;;;;;;;23.23;14.60;;;5.50;93.30;;;;;;2081228;28;20072;-91
2021/11/25 04:13:53;;;;;;;22.17;14.13;;;5.50;93.30;;;;;;2075074;28;20030;-91
2021/11/25 04:14:54;;;;;;;22.27;13.68;;;5.50;93.30;;;;;;2068923;28;20034;-92
2021/11/25 04:15:55;;;;;;;22.75;14.80;;;5.50;93.30;;;;;;2068820;28;20103;-91
2021/11/25 04:16:55;;;;;;;22.40;14.77;;;5.50;93.30;;;;;;2071963;28;20035;-92
2021/11/25 04:17:56;;;;;;;24.30;14.93;;;5.50;93.30;;;;;;2059133;28;20027;-91
2021/11/25 04:18:57;;;;;;;23.35;14.63;;;5.50;93.30;;;;;;2092731;28;20002;-85
2021/11/25 04:19:58;;;;;;;24.02;14.55;;;5.50;93.30;;;;;;2099864;28;20023;-88
2021/11/25 04:20:59;;;;;;;23.10;14.73;;;5.50;93.30;;;;;;2099321;28;20025;-90
2021/11/25 04:22:01;;;;;;;22.00;13.65;;;5.50;93.20;;;;;;2098355;28;20016;-90
2021/11/25 04:23:03;;;;;;;21.52;14.32;;;5.50;93.30;;;;;;2085376;28;20029;-90
2021/11/25 04:24:04;;;;;;;21.75;13.80;;;5.50;93.30;;;;;;2073486;28;20022;-90
2021/11/25 04:25:06;;;;;;;21.88;14.02;;;5.50;93.30;;;;;;2076322;28;20124;-91
2021/11/25 04:26:07;;;;;;;21.85;14.32;;;5.50;93.20;;;;;;2072821;28;20049;-90
2021/11/25 04:27:07;;;;;;;21.88;14.15;;;5.50;93.20;;;;;;2068159;28;20419;-91
2021/11/25 04:28:08;;;;;;;23.98;15.27;;;5.50;93.20;;;;;;2081574;28;20026;-91
2021/11/25 04:29:10;;;;;;;23.10;13.57;;;5.50;93.20;;;;;;2081535;28;20022;-90
2021/11/25 04:30:25;;;;;;;22.63;13.98;;;5.60;93.20;;;;;;2081377;28;20087;-91
2021/11/25 04:35:33;;;;;;;23.52;13.45;;;5.60;93.50;;;;;;2092007;28;20540;-90
2021/11/25 04:36:34;;;;;;;21.63;13.35;;;5.50;93.20;;;;;;2075962;28;20245;-91
2021/11/25 04:37:34;;;;;;;22.55;14.23;;;5.50;93.10;;;;;;2075005;28;20113;-90
2021/11/25 04:38:35;;;;;;;23.25;13.98;;;5.50;93.10;;;;;;2073288;28;20030;-90
2021/11/25 04:39:36;;;;;;;21.30;13.57;;;5.60;93.10;;;;;;2066538;28;20134;-90
2021/11/25 04:40:44;;;;;;;21.40;13.85;;;5.50;93.10;;;;;;2074209;28;20030;-90
2021/11/25 04:41:45;;;;;;;20.55;13.75;;;5.50;93.10;;;;;;2085098;28;20104;-91
2021/11/25 04:42:46;;;;;;;20.98;13.32;;;5.60;93.10;;;;;;2090980;28;20405;-90
2021/11/25 04:43:46;;;;;;;21.10;13.35;;;5.50;93.10;;;;;;2076388;28;20034;-90
2021/11/25 04:44:48;;;;;;;20.08;13.25;;;5.60;93.10;;;;;;2066588;28;20030;-90
2021/11/25 04:45:50;;;;;;;21.40;13.75;;;5.60;93.10;;;;;;2079591;28;20084;-90
2021/11/25 04:46:51;;;;;;;21.50;14.05;;;5.50;93.10;;;;;;2082724;28;20021;-91
2021/11/25 04:47:51;;;;;;;21.02;13.80;;;5.50;93.00;;;;;;2083064;28;20124;-90
2021/11/25 04:48:52;;;;;;;22.15;14.07;;;5.50;93.00;;;;;;2090911;28;20116;-90
2021/11/25 04:49:53;;;;;;;18.98;12.98;;;5.60;93.00;;;;;;2082628;28;20038;-91
2021/11/25 04:50:54;;;;;;;20.45;13.95;;;5.50;93.00;;;;;;2066543;28;20076;-91
2021/11/25 04:51:55;;;;;;;23.10;14.32;;;5.60;93.00;;;;;;2074552;28;20037;-90
2021/11/25 04:52:56;;;;;;;22.48;14.05;;;5.50;93.00;;;;;;2074536;28;20133;-91
2021/11/25 04:53:57;;;;;;;23.48;14.30;;;5.50;93.00;;;;;;2074169;28;20050;-91
2021/11/25 04:54:57;;;;;;;21.10;13.45;;;5.50;93.00;;;;;;2082991;28;20025;-91
2021/11/25 04:55:58;;;;;;;21.15;13.98;;;5.50;93.00;;;;;;2082757;28;20032;-91
2021/11/25 04:56:59;;;;;;;21.15;14.13;;;5.60;93.00;;;;;;2074569;28;20471;-91
2021/11/25 04:57:59;;;;;;;20.60;13.25;;;5.50;93.00;;;;;;2082233;28;20499;-90
2021/11/25 04:59:00;;;;;;;20.83;13.27;;;5.50;93.00;;;;;;2081829;28;20018;-90
2021/11/25 05:00:03;;;;;;;22.90;14.45;;;5.50;93.00;;;;;;2082634;28;20049;-90
2021/11/25 05:01:04;;;;;;;20.02;12.90;;;5.50;93.00;;;;;;2066559;28;20030;-91
2021/11/25 05:02:05;;;;;;;20.77;14.02;;;5.50;93.00;;;;;;2059050;28;20034;-91
2021/11/25 05:03:06;;;;;;;18.60;13.55;;;5.50;93.00;;;;;;2074834;28;20072;-90
2021/11/25 05:04:06;;;;;;;19.80;12.93;;;5.50;93.00;;;;;;2078523;28;20075;-91
2021/11/25 05:05:08;;;;;;;19.45;12.80;;;5.50;93.00;;;;;;2074345;28;20116;-89
2021/11/25 05:06:08;;;;;;;20.63;13.60;;;5.50;93.00;;;;;;2082533;28;20448;-90
2021/11/25 05:07:09;;;;;;;21.25;13.77;;;5.50;93.00;;;;;;2081978;28;20068;-90
2021/11/25 05:08:10;;;;;;;22.67;14.02;;;5.50;93.10;;;;;;2066107;28;20034;-90
2021/11/25 05:09:11;;;;;;;21.13;13.88;;;5.50;93.10;;;;;;2062660;28;20426;-90
2021/11/25 05:10:12;;;;;;;21.13;13.50;;;5.50;93.00;;;;;;2065490;28;20044;-90
2021/11/25 05:11:13;;;;;;;22.75;14.45;;;5.50;93.10;;;;;;2066771;28;20026;-90
2021/11/25 05:12:14;;;;;;;21.55;14.13;;;5.50;93.10;;;;;;2068536;28;20034;-91
2021/11/25 05:13:15;;;;;;;22.25;13.68;;;5.50;93.00;;;;;;2058152;28;20038;-89
2021/11/25 05:14:16;;;;;;;20.83;13.95;;;5.50;93.00;;;;;;2058549;28;20038;-91
2021/11/25 05:15:17;;;;;;;23.08;14.70;;;5.50;93.00;;;;;;2073779;28;20034;-91
2021/11/25 05:16:17;;;;;;;20.75;14.48;;;5.50;93.00;;;;;;2066370;28;20030;-91
2021/11/25 05:17:18;;;;;;;22.50;14.13;;;5.50;93.00;;;;;;2066245;28;20046;-90
2021/11/25 05:18:19;;;;;;;20.55;13.30;;;5.50;93.00;;;;;;2067776;28;20070;-91